sensor_id;sensor_type;location;lat;lon;timestamp;pressure;altitude;pressure_sealevel;temperature;humidity
73516;BME280;61763;51.416;5.442;2023-04-28T00:01:15;101219.38;;;7.85;100.00
73516;BME280;61763;51.416;5.442;2023-04-28T00:03:41;101190.41;;;7.67;100.00
73516;BME280;61763;51.416;5.442;2023-04-28T00:06:06;101211.41;;;7.82;100.00
73516;BME280;61763;51.416;5.442;2023-04-28T00:08:32;101211.63;;;7.76;100.00
73516;BME280;61763;51.416;5.442;2023-04-28T00:10:57;101211.84;;;7.68;100.00
73516;BME280;61763;51.416;5.442;2023-04-28T00:13:23;101209.25;;;7.65;100.00
73516;BME280;61763;51.416;5.442;2023-04-28T00:15:50;101202.91;;;7.68;100.00
73516;BME280;61763;51.416;5.442;2023-04-28T00:18:17;101200.63;;;7.56;100.00
73516;BME280;61763;51.416;5.442;2023-04-28T00:20:43;101195.81;;;7.65;100.00
73516;BME280;61763;51.416;5.442;2023-04-28T00:23:08;101191.09;;;7.74;100.00
73516;BME280;61763;51.416;5.442;2023-04-28T00:25:34;101188.56;;;7.69;100.00
73516;BME280;61763;51.416;5.442;2023-04-28T00:28:00;101191.31;;;7.67;100.00
73516;BME280;61763;51.416;5.442;2023-04-28T00:30:26;101186.19;;;7.60;100.00
73516;BME280;61763;51.416;5.442;2023-04-28T00:32:51;101180.72;;;7.63;100.00
73516;BME280;61763;51.416;5.442;2023-04-28T00:35:17;101177.03;;;7.65;100.00
73516;BME280;61763;51.416;5.442;2023-04-28T00:37:42;101174.66;;;7.83;100.00
73516;BME280;61763;51.416;5.442;2023-04-28T00:40:09;101168.31;;;7.85;100.00
73516;BME280;61763;51.416;5.442;2023-04-28T00:42:35;101162.66;;;7.93;100.00
73516;BME280;61763;51.416;5.442;2023-04-28T00:45:01;101158.31;;;7.89;100.00
73516;BME280;61763;51.416;5.442;2023-04-28T00:47:31;101151.91;;;7.93;100.00
73516;BME280;61763;51.416;5.442;2023-04-28T00:50:01;101150.38;;;7.86;100.00
73516;BME280;61763;51.416;5.442;2023-04-28T00:52:28;101146.69;;;7.88;100.00
73516;BME280;61763;51.416;5.442;2023-04-28T00:54:54;101140.25;;;7.94;100.00
73516;BME280;61763;51.416;5.442;2023-04-28T00:57:21;101144.66;;;7.97;100.00
73516;BME280;61763;51.416;5.442;2023-04-28T00:59:46;101135.69;;;7.96;100.00
73516;BME280;61763;51.416;5.442;2023-04-28T01:02:12;101125.50;;;8.06;100.00
73516;BME280;61763;51.416;5.442;2023-04-28T01:04:42;101131.16;;;7.98;100.00
73516;BME280;61763;51.416;5.442;2023-04-28T01:07:08;101110.06;;;8.11;100.00
73516;BME280;61763;51.416;5.442;2023-04-28T01:09:33;101105.69;;;8.09;100.00
73516;BME280;61763;51.416;5.442;2023-04-28T01:11:59;101105.69;;;8.09;100.00
73516;BME280;61763;51.416;5.442;2023-04-28T01:14:24;101109.09;;;8.14;100.00
73516;BME280;61763;51.416;5.442;2023-04-28T01:16:51;101109.38;;;8.06;100.00
73516;BME280;61763;51.416;5.442;2023-04-28T01:19:21;101113.75;;;8.09;100.00
73516;BME280;61763;51.416;5.442;2023-04-28T01:21:47;101112.72;;;8.13;100.00
73516;BME280;61763;51.416;5.442;2023-04-28T01:24:12;101112.81;;;8.10;100.00
73516;BME280;61763;51.416;5.442;2023-04-28T01:26:38;101112.69;;;8.14;100.00
73516;BME280;61763;51.416;5.442;2023-04-28T01:29:03;101108.44;;;8.07;100.00
73516;BME280;61763;51.416;5.442;2023-04-28T01:31:28;101108.63;;;8.02;100.00
73516;BME280;61763;51.416;5.442;2023-04-28T01:33:57;101114.97;;;8.00;100.00
73516;BME280;61763;51.416;5.442;2023-04-28T01:36:23;101106.69;;;8.06;100.00
73516;BME280;61763;51.416;5.442;2023-04-28T01:38:49;101094.78;;;8.13;100.00
73516;BME280;61763;51.416;5.442;2023-04-28T01:41:14;101091.22;;;8.13;100.00
73516;BME280;61763;51.416;5.442;2023-04-28T01:43:40;101097.88;;;8.02;100.00
73516;BME280;61763;51.416;5.442;2023-04-28T01:46:05;101092.44;;;8.04;100.00
73516;BME280;61763;51.416;5.442;2023-04-28T01:48:31;101088.72;;;8.06;100.00
73516;BME280;61763;51.416;5.442;2023-04-28T01:50:56;101084.50;;;7.99;100.00
73516;BME280;61763;51.416;5.442;2023-04-28T01:53:21;101089.22;;;8.18;100.00
73516;BME280;61763;51.416;5.442;2023-04-28T01:55:47;101083.41;;;8.05;100.00
73516;BME280;61763;51.416;5.442;2023-04-28T01:58:12;101078.94;;;8.05;100.00
73516;BME280;61763;51.416;5.442;2023-04-28T02:00:38;101078.22;;;8.00;100.00
73516;BME280;61763;51.416;5.442;2023-04-28T02:03:03;101077.97;;;8.06;100.00
73516;BME280;61763;51.416;5.442;2023-04-28T02:05:29;101081.34;;;7.88;100.00
73516;BME280;61763;51.416;5.442;2023-04-28T02:07:54;101084.78;;;7.92;100.00
73516;BME280;61763;51.416;5.442;2023-04-28T02:10:20;101086.22;;;7.77;100.00
73516;BME280;61763;51.416;5.442;2023-04-28T02:12:45;101089.41;;;7.88;100.00
73516;BME280;61763;51.416;5.442;2023-04-28T02:15:11;101105.00;;;7.77;100.00
73516;BME280;61763;51.416;5.442;2023-04-28T02:17:36;101082.72;;;7.75;100.00
73516;BME280;61763;51.416;5.442;2023-04-28T02:20:02;101065.34;;;7.85;100.00
73516;BME280;61763;51.416;5.442;2023-04-28T02:22:28;101060.13;;;7.80;100.00
73516;BME280;61763;51.416;5.442;2023-04-28T02:24:54;101049.41;;;7.79;100.00
73516;BME280;61763;51.416;5.442;2023-04-28T02:27:20;101051.34;;;7.75;100.00
73516;BME280;61763;51.416;5.442;2023-04-28T02:29:47;101049.50;;;7.76;100.00
73516;BME280;61763;51.416;5.442;2023-04-28T02:32:14;101043.59;;;7.66;100.00
73516;BME280;61763;51.416;5.442;2023-04-28T02:34:39;101042.88;;;7.61;100.00
73516;BME280;61763;51.416;5.442;2023-04-28T02:37:05;101037.66;;;7.56;100.00
73516;BME280;61763;51.416;5.442;2023-04-28T02:39:30;101023.44;;;7.54;100.00
73516;BME280;61763;51.416;5.442;2023-04-28T02:41:57;101012.56;;;7.57;100.00
73516;BME280;61763;51.416;5.442;2023-04-28T02:44:22;100996.75;;;7.75;100.00
73516;BME280;61763;51.416;5.442;2023-04-28T02:46:47;100992.50;;;7.67;100.00
73516;BME280;61763;51.416;5.442;2023-04-28T02:49:15;100991.84;;;7.61;100.00
73516;BME280;61763;51.416;5.442;2023-04-28T02:51:40;100959.38;;;7.42;100.00
73516;BME280;61763;51.416;5.442;2023-04-28T02:54:06;100937.28;;;7.35;100.00
73516;BME280;61763;51.416;5.442;2023-04-28T02:56:32;100983.56;;;7.67;100.00
73516;BME280;61763;51.416;5.442;2023-04-28T02:58:58;100981.88;;;7.64;100.00
73516;BME280;61763;51.416;5.442;2023-04-28T03:01:23;100989.09;;;7.62;100.00
73516;BME280;61763;51.416;5.442;2023-04-28T03:03:48;100995.69;;;7.53;100.00
73516;BME280;61763;51.416;5.442;2023-04-28T03:06:14;100987.78;;;7.74;100.00
73516;BME280;61763;51.416;5.442;2023-04-28T03:08:40;100993.22;;;7.72;100.00
73516;BME280;61763;51.416;5.442;2023-04-28T03:11:05;100977.69;;;7.81;100.00
73516;BME280;61763;51.416;5.442;2023-04-28T03:13:32;100988.63;;;7.76;100.00
73516;BME280;61763;51.416;5.442;2023-04-28T03:15:57;100981.13;;;7.84;100.00
73516;BME280;61763;51.416;5.442;2023-04-28T03:18:24;100986.19;;;7.94;100.00
73516;BME280;61763;51.416;5.442;2023-04-28T03:20:50;100993.53;;;7.88;100.00
73516;BME280;61763;51.416;5.442;2023-04-28T03:23:15;100992.38;;;7.96;100.00
73516;BME280;61763;51.416;5.442;2023-04-28T03:25:42;100986.25;;;7.92;100.00
73516;BME280;61763;51.416;5.442;2023-04-28T03:28:07;100987.88;;;7.96;100.00
73516;BME280;61763;51.416;5.442;2023-04-28T03:30:36;100987.28;;;7.88;100.00
73516;BME280;61763;51.416;5.442;2023-04-28T03:33:01;100986.50;;;7.84;100.00
73516;BME280;61763;51.416;5.442;2023-04-28T03:35:27;100992.25;;;7.99;100.00
73516;BME280;61763;51.416;5.442;2023-04-28T03:37:52;100988.72;;;7.98;100.00
73516;BME280;61763;51.416;5.442;2023-04-28T03:40:17;100983.09;;;8.04;100.00
73516;BME280;61763;51.416;5.442;2023-04-28T03:42:43;100982.28;;;8.02;100.00
73516;BME280;61763;51.416;5.442;2023-04-28T03:45:08;100981.28;;;8.05;100.00
73516;BME280;61763;51.416;5.442;2023-04-28T03:47:35;100983.09;;;8.04;100.00
73516;BME280;61763;51.416;5.442;2023-04-28T03:50:01;100978.47;;;8.08;100.00
73516;BME280;61763;51.416;5.442;2023-04-28T03:52:26;100978.19;;;8.16;100.00
73516;BME280;61763;51.416;5.442;2023-04-28T03:54:51;100969.13;;;8.18;100.00
73516;BME280;61763;51.416;5.442;2023-04-28T03:57:17;100956.31;;;8.25;100.00
73516;BME280;61763;51.416;5.442;2023-04-28T03:59:44;100953.50;;;8.28;100.00
73516;BME280;61763;51.416;5.442;2023-04-28T04:02:09;100946.31;;;8.29;100.00
73516;BME280;61763;51.416;5.442;2023-04-28T04:04:35;100943.69;;;8.27;100.00
73516;BME280;61763;51.416;5.442;2023-04-28T04:07:01;100947.22;;;8.29;100.00
73516;BME280;61763;51.416;5.442;2023-04-28T04:09:26;100950.63;;;8.33;100.00
73516;BME280;61763;51.416;5.442;2023-04-28T04:11:53;100947.72;;;8.39;100.00
73516;BME280;61763;51.416;5.442;2023-04-28T04:14:19;100951.28;;;8.39;100.00
73516;BME280;61763;51.416;5.442;2023-04-28T04:16:46;100954.31;;;8.30;100.00
73516;BME280;61763;51.416;5.442;2023-04-28T04:19:12;100960.00;;;8.22;100.00
73516;BME280;61763;51.416;5.442;2023-04-28T04:21:37;100947.28;;;8.28;100.00
73516;BME280;61763;51.416;5.442;2023-04-28T04:24:03;100961.28;;;8.36;100.00
73516;BME280;61763;51.416;5.442;2023-04-28T04:26:28;100950.75;;;8.30;100.00
73516;BME280;61763;51.416;5.442;2023-04-28T04:28:54;100943.06;;;8.44;100.00
73516;BME280;61763;51.416;5.442;2023-04-28T04:31:19;100943.47;;;8.33;100.00
73516;BME280;61763;51.416;5.442;2023-04-28T04:33:46;100938.78;;;8.38;100.00
73516;BME280;61763;51.416;5.442;2023-04-28T04:36:12;100946.03;;;8.36;100.00
73516;BME280;61763;51.416;5.442;2023-04-28T04:38:37;100946.03;;;8.36;100.00
73516;BME280;61763;51.416;5.442;2023-04-28T04:41:03;100930.50;;;8.43;100.00
73516;BME280;61763;51.416;5.442;2023-04-28T04:43:28;100925.50;;;8.57;100.00
73516;BME280;61763;51.416;5.442;2023-04-28T04:45:53;100925.25;;;8.64;100.00
73516;BME280;61763;51.416;5.442;2023-04-28T04:48:19;100927.31;;;8.57;100.00
73516;BME280;61763;51.416;5.442;2023-04-28T04:50:45;100918.66;;;8.49;100.00
73516;BME280;61763;51.416;5.442;2023-04-28T04:53:10;100920.63;;;8.67;100.00
73516;BME280;61763;51.416;5.442;2023-04-28T04:55:36;100920.06;;;8.59;100.00
73516;BME280;61763;51.416;5.442;2023-04-28T04:58:02;100911.13;;;8.58;100.00
73516;BME280;61763;51.416;5.442;2023-04-28T05:00:27;100924.56;;;8.58;100.00
73516;BME280;61763;51.416;5.442;2023-04-28T05:02:53;100921.75;;;8.62;100.00
73516;BME280;61763;51.416;5.442;2023-04-28T05:05:18;100897.28;;;8.68;100.00
73516;BME280;61763;51.416;5.442;2023-04-28T05:07:44;100913.91;;;8.77;100.00
73516;BME280;61763;51.416;5.442;2023-04-28T05:10:10;100908.78;;;8.71;100.00
73516;BME280;61763;51.416;5.442;2023-04-28T05:12:36;100909.91;;;8.88;100.00
73516;BME280;61763;51.416;5.442;2023-04-28T05:15:05;100910.69;;;8.90;100.00
73516;BME280;61763;51.416;5.442;2023-04-28T05:17:32;100915.81;;;8.96;100.00
73516;BME280;61763;51.416;5.442;2023-04-28T05:19:57;100922.03;;;8.98;100.00
73516;BME280;61763;51.416;5.442;2023-04-28T05:22:23;100931.19;;;9.15;100.00
73516;BME280;61763;51.416;5.442;2023-04-28T05:24:48;100926.59;;;9.17;100.00
73516;BME280;61763;51.416;5.442;2023-04-28T05:27:13;100921.28;;;9.15;100.00
73516;BME280;61763;51.416;5.442;2023-04-28T05:29:39;100921.28;;;9.15;100.00
73516;BME280;61763;51.416;5.442;2023-04-28T05:32:04;100931.59;;;9.26;100.00
73516;BME280;61763;51.416;5.442;2023-04-28T05:34:31;100922.56;;;9.27;100.00
73516;BME280;61763;51.416;5.442;2023-04-28T05:36:57;100909.78;;;9.32;100.00
73516;BME280;61763;51.416;5.442;2023-04-28T05:39:24;100909.31;;;9.43;100.00
73516;BME280;61763;51.416;5.442;2023-04-28T05:41:50;100913.91;;;9.41;100.00
73516;BME280;61763;51.416;5.442;2023-04-28T05:44:17;100912.28;;;9.57;100.00
73516;BME280;61763;51.416;5.442;2023-04-28T05:46:42;100898.13;;;9.52;100.00
73516;BME280;61763;51.416;5.442;2023-04-28T05:49:09;100905.00;;;9.78;100.00
73516;BME280;61763;51.416;5.442;2023-04-28T05:51:35;100909.47;;;9.79;100.00
73516;BME280;61763;51.416;5.442;2023-04-28T05:54:00;100914.06;;;9.96;100.00
73516;BME280;61763;51.416;5.442;2023-04-28T05:56:26;100904.16;;;9.97;100.00
73516;BME280;61763;51.416;5.442;2023-04-28T05:58:51;100915.75;;;9.99;100.00
73516;BME280;61763;51.416;5.442;2023-04-28T06:01:16;100915.75;;;9.99;100.00
73516;BME280;61763;51.416;5.442;2023-04-28T06:03:43;100910.28;;;10.00;100.00
73516;BME280;61763;51.416;5.442;2023-04-28T06:06:09;100907.81;;;9.96;100.00
73516;BME280;61763;51.416;5.442;2023-04-28T06:08:35;100922.06;;;9.98;100.00
73516;BME280;61763;51.416;5.442;2023-04-28T06:11:01;100913.28;;;10.13;100.00
73516;BME280;61763;51.416;5.442;2023-04-28T06:13:26;100918.69;;;10.13;100.00
73516;BME280;61763;51.416;5.442;2023-04-28T06:15:52;100910.81;;;10.28;100.00
73516;BME280;61763;51.416;5.442;2023-04-28T06:18:17;100913.06;;;10.18;100.00
73516;BME280;61763;51.416;5.442;2023-04-28T06:20:43;100914.88;;;10.17;100.00
73516;BME280;61763;51.416;5.442;2023-04-28T06:23:08;100905.34;;;10.29;100.00
73516;BME280;61763;51.416;5.442;2023-04-28T06:25:34;100908.63;;;10.36;100.00
73516;BME280;61763;51.416;5.442;2023-04-28T06:28:01;100905.28;;;10.50;100.00
73516;BME280;61763;51.416;5.442;2023-04-28T06:30:26;100919.31;;;10.57;100.00
73516;BME280;61763;51.416;5.442;2023-04-28T06:32:51;100909.66;;;10.70;100.00
73516;BME280;61763;51.416;5.442;2023-04-28T06:35:17;100912.88;;;10.78;100.00
73516;BME280;61763;51.416;5.442;2023-04-28T06:37:42;100896.03;;;10.91;100.00
73516;BME280;61763;51.416;5.442;2023-04-28T06:40:09;100905.50;;;10.99;100.00
73516;BME280;61763;51.416;5.442;2023-04-28T06:42:35;100898.81;;;11.07;100.00
73516;BME280;61763;51.416;5.442;2023-04-28T06:45:02;100899.31;;;11.15;100.00
73516;BME280;61763;51.416;5.442;2023-04-28T06:47:27;100897.72;;;11.11;100.00
73516;BME280;61763;51.416;5.442;2023-04-28T06:49:52;100893.66;;;11.02;100.00
73516;BME280;61763;51.416;5.442;2023-04-28T06:52:19;100892.47;;;10.90;100.00
73516;BME280;61763;51.416;5.442;2023-04-28T06:54:48;100892.63;;;10.87;100.00
73516;BME280;61763;51.416;5.442;2023-04-28T06:57:13;100893.88;;;10.80;100.00
73516;BME280;61763;51.416;5.442;2023-04-28T06:59:38;100891.44;;;10.75;100.00
73516;BME280;61763;51.416;5.442;2023-04-28T07:02:05;100879.03;;;10.71;100.00
73516;BME280;61763;51.416;5.442;2023-04-28T07:04:30;100879.06;;;10.89;100.00
73516;BME280;61763;51.416;5.442;2023-04-28T07:06:56;100881.34;;;11.14;100.00
73516;BME280;61763;51.416;5.442;2023-04-28T07:09:21;100876.88;;;11.30;100.00
73516;BME280;61763;51.416;5.442;2023-04-28T07:11:47;100882.34;;;11.46;100.00
73516;BME280;61763;51.416;5.442;2023-04-28T07:14:12;100877.72;;;11.48;100.00
73516;BME280;61763;51.416;5.442;2023-04-28T07:16:37;100884.25;;;11.62;100.00
73516;BME280;61763;51.416;5.442;2023-04-28T07:19:03;100881.97;;;11.70;100.00
73516;BME280;61763;51.416;5.442;2023-04-28T07:21:29;100877.16;;;11.59;100.00
73516;BME280;61763;51.416;5.442;2023-04-28T07:23:55;100894.41;;;11.56;100.00
73516;BME280;61763;51.416;5.442;2023-04-28T07:26:24;100884.47;;;11.57;100.00
73516;BME280;61763;51.416;5.442;2023-04-28T07:28:49;100882.19;;;11.49;100.00
73516;BME280;61763;51.416;5.442;2023-04-28T07:31:16;100887.81;;;11.62;100.00
73516;BME280;61763;51.416;5.442;2023-04-28T07:33:42;100888.53;;;11.82;100.00
73516;BME280;61763;51.416;5.442;2023-04-28T07:36:07;100880.22;;;12.02;100.00
73516;BME280;61763;51.416;5.442;2023-04-28T07:38:33;100884.97;;;11.99;100.00
73516;BME280;61763;51.416;5.442;2023-04-28T07:40:59;100894.41;;;11.90;100.00
73516;BME280;61763;51.416;5.442;2023-04-28T07:43:25;100897.50;;;11.66;100.00
73516;BME280;61763;51.416;5.442;2023-04-28T07:45:52;100899.47;;;11.63;100.00
73516;BME280;61763;51.416;5.442;2023-04-28T07:48:17;100897.50;;;11.66;100.00
73516;BME280;61763;51.416;5.442;2023-04-28T07:50:43;100896.09;;;11.59;100.00
73516;BME280;61763;51.416;5.442;2023-04-28T07:53:08;100891.28;;;11.64;100.00
73516;BME280;61763;51.416;5.442;2023-04-28T07:55:34;100892.88;;;11.68;100.00
73516;BME280;61763;51.416;5.442;2023-04-28T07:57:59;100898.16;;;11.87;100.00
73516;BME280;61763;51.416;5.442;2023-04-28T08:00:26;100899.19;;;11.85;100.00
73516;BME280;61763;51.416;5.442;2023-04-28T08:02:52;100905.50;;;11.85;100.00
73516;BME280;61763;51.416;5.442;2023-04-28T08:05:18;100898.78;;;11.92;100.00
73516;BME280;61763;51.416;5.442;2023-04-28T08:07:43;100893.84;;;12.01;100.00
73516;BME280;61763;51.416;5.442;2023-04-28T08:10:09;100897.69;;;11.97;100.00
73516;BME280;61763;51.416;5.442;2023-04-28T08:12:36;100893.41;;;12.08;100.00
73516;BME280;61763;51.416;5.442;2023-04-28T08:15:02;100886.38;;;12.06;100.00
73516;BME280;61763;51.416;5.442;2023-04-28T08:17:28;100896.41;;;12.20;100.00
73516;BME280;61763;51.416;5.442;2023-04-28T08:19:53;100895.19;;;12.25;100.00
73516;BME280;61763;51.416;5.442;2023-04-28T08:22:19;100896.31;;;12.21;100.00
73516;BME280;61763;51.416;5.442;2023-04-28T08:24:44;100890.53;;;12.12;100.00
73516;BME280;61763;51.416;5.442;2023-04-28T08:27:10;100896.03;;;12.26;100.00
73516;BME280;61763;51.416;5.442;2023-04-28T08:29:36;100895.69;;;12.32;100.00
73516;BME280;61763;51.416;5.442;2023-04-28T08:32:02;100895.09;;;12.27;100.00
73516;BME280;61763;51.416;5.442;2023-04-28T08:34:28;100896.50;;;12.34;100.00
73516;BME280;61763;51.416;5.442;2023-04-28T08:36:54;100905.56;;;12.49;100.00
73516;BME280;61763;51.416;5.442;2023-04-28T08:39:19;100898.13;;;12.53;100.00
73516;BME280;61763;51.416;5.442;2023-04-28T08:41:47;100909.31;;;12.47;100.00
73516;BME280;61763;51.416;5.442;2023-04-28T08:44:12;100898.94;;;12.39;100.00
73516;BME280;61763;51.416;5.442;2023-04-28T08:46:42;100908.94;;;12.53;100.00
73516;BME280;61763;51.416;5.442;2023-04-28T08:49:15;100907.13;;;12.53;100.00
73516;BME280;61763;51.416;5.442;2023-04-28T08:51:50;100897.97;;;12.56;100.00
73516;BME280;61763;51.416;5.442;2023-04-28T08:54:20;100900.72;;;12.70;100.00
73516;BME280;61763;51.416;5.442;2023-04-28T08:56:47;100905.88;;;12.75;100.00
73516;BME280;61763;51.416;5.442;2023-04-28T08:59:13;100909.78;;;12.85;100.00
73516;BME280;61763;51.416;5.442;2023-04-28T09:01:38;100903.56;;;12.99;100.00
73516;BME280;61763;51.416;5.442;2023-04-28T09:04:04;100909.06;;;12.97;100.00
73516;BME280;61763;51.416;5.442;2023-04-28T09:06:34;100911.59;;;13.01;100.00
73516;BME280;61763;51.416;5.442;2023-04-28T09:09:24;100905.72;;;13.08;100.00
73516;BME280;61763;51.416;5.442;2023-04-28T09:12:00;100903.25;;;13.20;100.00
73516;BME280;61763;51.416;5.442;2023-04-28T09:14:26;100891.13;;;13.41;100.00
73516;BME280;61763;51.416;5.442;2023-04-28T09:16:52;100895.38;;;13.45;100.00
73516;BME280;61763;51.416;5.442;2023-04-28T09:19:18;100895.59;;;13.57;100.00
73516;BME280;61763;51.416;5.442;2023-04-28T09:21:47;100893.84;;;13.41;100.00
73516;BME280;61763;51.416;5.442;2023-04-28T09:24:32;100898.31;;;13.57;100.00
73516;BME280;61763;51.416;5.442;2023-04-28T09:26:59;100897.91;;;13.63;100.00
73516;BME280;61763;51.416;5.442;2023-04-28T09:29:27;100892.50;;;13.63;100.00
73516;BME280;61763;51.416;5.442;2023-04-28T09:31:52;100901.34;;;13.81;100.00
73516;BME280;61763;51.416;5.442;2023-04-28T09:34:19;100894.81;;;13.69;100.00
73516;BME280;61763;51.416;5.442;2023-04-28T09:36:44;100902.28;;;13.65;100.00
73516;BME280;61763;51.416;5.442;2023-04-28T09:39:09;100899.75;;;13.48;100.00
73516;BME280;61763;51.416;5.442;2023-04-28T09:41:40;100901.00;;;13.57;100.00
73516;BME280;61763;51.416;5.442;2023-04-28T09:44:24;100903.44;;;13.61;100.00
73516;BME280;61763;51.416;5.442;2023-04-28T09:46:50;100909.31;;;13.39;100.00
73516;BME280;61763;51.416;5.442;2023-04-28T09:49:16;100910.50;;;13.49;100.00
73516;BME280;61763;51.416;5.442;2023-04-28T09:51:43;100911.00;;;13.56;100.00
73516;BME280;61763;51.416;5.442;2023-04-28T09:54:09;100912.06;;;13.54;100.00
73516;BME280;61763;51.416;5.442;2023-04-28T09:56:35;100906.56;;;13.70;100.00
73516;BME280;61763;51.416;5.442;2023-04-28T09:59:02;100907.63;;;13.67;100.00
73516;BME280;61763;51.416;5.442;2023-04-28T10:01:36;100909.56;;;13.65;100.00
73516;BME280;61763;51.416;5.442;2023-04-28T10:04:03;100916.72;;;13.80;100.00
73516;BME280;61763;51.416;5.442;2023-04-28T10:06:29;100920.59;;;14.05;100.00
73516;BME280;61763;51.416;5.442;2023-04-28T10:08:55;100908.00;;;14.04;100.00
73516;BME280;61763;51.416;5.442;2023-04-28T10:11:23;100909.25;;;13.98;100.00
73516;BME280;61763;51.416;5.442;2023-04-28T10:13:49;100915.81;;;14.23;100.00
73516;BME280;61763;51.416;5.442;2023-04-28T10:16:15;100912.44;;;14.19;100.00
73516;BME280;61763;51.416;5.442;2023-04-28T10:18:41;100908.66;;;14.22;100.00
73516;BME280;61763;51.416;5.442;2023-04-28T10:21:07;100899.72;;;14.34;100.00
73516;BME280;61763;51.416;5.442;2023-04-28T10:26:15;100897.78;;;14.22;100.00
73516;BME280;61763;51.416;5.442;2023-04-28T10:28:46;100899.72;;;14.34;100.00
73516;BME280;61763;51.416;5.442;2023-04-28T10:31:20;100891.47;;;14.36;100.00
73516;BME280;61763;51.416;5.442;2023-04-28T10:33:47;100902.72;;;14.44;100.00
73516;BME280;61763;51.416;5.442;2023-04-28T10:36:51;100896.94;;;14.22;100.00
73516;BME280;61763;51.416;5.442;2023-04-28T10:39:19;100899.44;;;14.25;100.00
73516;BME280;61763;51.416;5.442;2023-04-28T10:41:45;100897.94;;;14.06;100.00
73516;BME280;61763;51.416;5.442;2023-04-28T10:47:07;100894.28;;;14.34;100.00
73516;BME280;61763;51.416;5.442;2023-04-28T10:55:32;100894.16;;;14.50;100.00
73516;BME280;61763;51.416;5.442;2023-04-28T11:00:42;100881.56;;;15.17;100.00
73516;BME280;61763;51.416;5.442;2023-04-28T11:06:25;100871.63;;;15.82;100.00
73516;BME280;61763;51.416;5.442;2023-04-28T11:08:53;100864.50;;;16.05;100.00
73516;BME280;61763;51.416;5.442;2023-04-28T11:11:20;100865.88;;;16.10;100.00
73516;BME280;61763;51.416;5.442;2023-04-28T11:13:47;100861.91;;;16.03;100.00
73516;BME280;61763;51.416;5.442;2023-04-28T11:16:14;100851.03;;;15.90;100.00
73516;BME280;61763;51.416;5.442;2023-04-28T11:21:17;100862.50;;;16.20;100.00
73516;BME280;61763;51.416;5.442;2023-04-28T11:23:43;100862.97;;;16.14;100.00
73516;BME280;61763;51.416;5.442;2023-04-28T11:26:09;100860.13;;;16.15;100.00
73516;BME280;61763;51.416;5.442;2023-04-28T11:28:35;100850.72;;;16.19;100.00
73516;BME280;61763;51.416;5.442;2023-04-28T11:31:15;100851.66;;;16.07;100.00
73516;BME280;61763;51.416;5.442;2023-04-28T11:34:10;100859.59;;;15.97;100.00
73516;BME280;61763;51.416;5.442;2023-04-28T11:36:39;100851.50;;;15.84;100.00
73516;BME280;61763;51.416;5.442;2023-04-28T11:39:06;100854.41;;;15.55;100.00
73516;BME280;61763;51.416;5.442;2023-04-28T11:41:43;100861.03;;;15.64;100.00
73516;BME280;61763;51.416;5.442;2023-04-28T11:46:49;100855.41;;;15.80;100.00
73516;BME280;61763;51.416;5.442;2023-04-28T11:49:17;100856.25;;;15.81;100.00
73516;BME280;61763;51.416;5.442;2023-04-28T11:51:43;100869.13;;;15.79;100.00
73516;BME280;61763;51.416;5.442;2023-04-28T11:54:19;100874.00;;;15.61;100.00
73516;BME280;61763;51.416;5.442;2023-04-28T11:56:45;100871.81;;;15.66;100.00
73516;BME280;61763;51.416;5.442;2023-04-28T11:59:11;100875.19;;;15.56;100.00
73516;BME280;61763;51.416;5.442;2023-04-28T12:01:48;100886.91;;;15.44;100.00
73516;BME280;61763;51.416;5.442;2023-04-28T12:07:18;100894.09;;;15.32;100.00
73516;BME280;61763;51.416;5.442;2023-04-28T12:12:34;100896.81;;;15.32;100.00
73516;BME280;61763;51.416;5.442;2023-04-28T12:15:02;100895.41;;;15.39;100.00
73516;BME280;61763;51.416;5.442;2023-04-28T12:20:03;100889.09;;;15.65;100.00
73516;BME280;61763;51.416;5.442;2023-04-28T12:22:29;100895.75;;;15.73;100.00
73516;BME280;61763;51.416;5.442;2023-04-28T12:27:28;100894.97;;;15.58;100.00
73516;BME280;61763;51.416;5.442;2023-04-28T12:29:55;100895.22;;;15.55;100.00
73516;BME280;61763;51.416;5.442;2023-04-28T12:32:42;100903.59;;;15.65;100.00
73516;BME280;61763;51.416;5.442;2023-04-28T12:35:08;100908.59;;;15.58;100.00
73516;BME280;61763;51.416;5.442;2023-04-28T12:37:34;100909.47;;;15.46;100.00
73516;BME280;61763;51.416;5.442;2023-04-28T12:39:59;100905.97;;;15.44;100.00
73516;BME280;61763;51.416;5.442;2023-04-28T12:42:26;100907.44;;;15.10;100.00
73516;BME280;61763;51.416;5.442;2023-04-28T12:44:51;100919.22;;;15.23;100.00
73516;BME280;61763;51.416;5.442;2023-04-28T12:47:16;100920.75;;;14.87;100.00
73516;BME280;61763;51.416;5.442;2023-04-28T12:49:42;100924.13;;;14.91;100.00
73516;BME280;61763;51.416;5.442;2023-04-28T12:52:08;100931.22;;;15.06;100.00
73516;BME280;61763;51.416;5.442;2023-04-28T12:54:34;100923.84;;;15.08;100.00
73516;BME280;61763;51.416;5.442;2023-04-28T12:56:59;100919.66;;;14.89;100.00
73516;BME280;61763;51.416;5.442;2023-04-28T12:59:26;100930.53;;;14.89;100.00
73516;BME280;61763;51.416;5.442;2023-04-28T13:01:53;100937.66;;;14.78;100.00
73516;BME280;61763;51.416;5.442;2023-04-28T13:04:19;100938.06;;;14.71;100.00
73516;BME280;61763;51.416;5.442;2023-04-28T13:06:45;100948.81;;;14.59;100.00
73516;BME280;61763;51.416;5.442;2023-04-28T13:09:13;100948.56;;;14.49;100.00
73516;BME280;61763;51.416;5.442;2023-04-28T13:11:42;100959.34;;;14.36;100.00
73516;BME280;61763;51.416;5.442;2023-04-28T13:14:08;100952.56;;;14.00;100.00
73516;BME280;61763;51.416;5.442;2023-04-28T13:16:34;100960.81;;;13.84;100.00